Terminal Aerodrome Forecast
Issued by NWS Duluth, MN

Home | Current Version | Previous Version | Text Only | Print | Product List | Glossary On
Versions: 1 2 3 4 5 6 7 8 9 10 11 12 13 14 15 16 17 18 19 20
000
FTUS43 KDLH 250539
TAFINL
TAF
KINL 250539Z 2506/2606 05007KT 1/2SM SN FZFG VV007
     FM251100 32004KT 1 1/2SM -SN OVC015
     FM251200 30005KT 2SM -SN OVC015
     FM251500 27009G17KT P6SM VCSH OVC025
     FM251800 26011G20KT P6SM OVC020
     FM260100 26008KT P6SM BKN020
     FM260500 23006KT P6SM BKN025=

USA.gov is the U.S. government's official web portal to all federal, state and local government web resources and services.